Time;durP1;ratioP1;P1;durP2;ratioP2;P2;SDS_P1;SDS_P2;PMS_P1;PMS_P2;Temp;Humidity;BMP_temperature;BMP_pressure;BME280_temperature;BME280_humidity;BME280_pressure;Samples;Min_cycle;Max_cycle;Signal;HPM_P1;HPM_P2
2023/03/20 05:48:30;;;;;;;40.25;24.77;;;9.70;99.90;;;;;;6196042;22;20053;-93
2023/03/20 05:51:10;;;;;;;37.55;25.00;;;9.80;99.90;;;;;;6292478;22;20065;-93
2023/03/20 05:54:04;;;;;;;34.00;24.27;;;9.80;99.90;;;;;;6264197;22;20011;-92
2023/03/20 06:03:25;;;;;;;32.20;22.58;;;10.10;99.90;;;;;;6271378;23;20008;-94
2023/03/20 06:11:44;;;;;;;30.70;22.20;;;10.80;99.90;;;;;;6298815;22;20049;-91
2023/03/20 06:14:16;;;;;;;30.27;20.38;;;10.90;99.90;;;;;;6237997;22;20011;-93
2023/03/20 06:17:33;;;;;;;25.23;18.73;;;11.20;99.90;;;;;;6283012;22;20011;-93
2023/03/20 06:20:03;;;;;;;24.63;19.30;;;11.50;99.90;;;;;;6271469;22;20057;-93
2023/03/20 06:22:31;;;;;;;28.67;19.75;;;11.70;99.90;;;;;;6257158;22;20467;-95
2023/03/20 06:24:58;;;;;;;24.65;19.60;;;11.90;99.90;;;;;;6257391;22;20341;-94
2023/03/20 06:27:31;;;;;;;28.20;19.20;;;12.30;99.90;;;;;;6266803;22;20066;-93
2023/03/20 06:29:58;;;;;;;21.48;17.70;;;12.60;99.90;;;;;;6261187;22;20007;-94
2023/03/20 06:32:30;;;;;;;21.33;18.02;;;13.00;99.90;;;;;;6259826;22;19999;-92
2023/03/20 06:34:59;;;;;;;18.75;17.00;;;13.30;99.90;;;;;;6257210;22;20019;-93
2023/03/20 06:37:46;;;;;;;20.33;18.08;;;13.60;99.90;;;;;;6257024;22;20061;-94
2023/03/20 06:40:33;;;;;;;22.65;17.77;;;14.20;99.90;;;;;;6286300;22;20090;-95
2023/03/20 06:43:19;;;;;;;22.20;20.02;;;14.50;99.90;;;;;;6260559;22;20393;-93
2023/03/20 06:45:56;;;;;;;24.42;21.05;;;14.70;99.90;;;;;;6258220;22;20072;-94
2023/03/20 06:50:58;;;;;;;22.73;20.73;;;14.90;99.90;;;;;;6155359;23;20025;-92
2023/03/20 06:53:35;;;;;;;21.60;19.67;;;15.30;99.90;;;;;;6105895;23;20063;-94
2023/03/20 06:56:17;;;;;;;20.27;18.45;;;15.50;99.90;;;;;;6106652;23;20013;-94
2023/03/20 06:58:55;;;;;;;20.48;18.88;;;15.40;99.90;;;;;;6104967;23;20089;-93
2023/03/20 07:01:23;;;;;;;21.27;19.60;;;15.50;99.90;;;;;;6103583;23;20020;-94
2023/03/20 07:03:53;;;;;;;21.73;19.75;;;15.40;99.90;;;;;;6105910;23;20347;-94
2023/03/20 07:06:34;;;;;;;20.85;19.15;;;15.30;99.90;;;;;;6103941;23;20044;-93
2023/03/20 07:09:04;;;;;;;22.27;20.27;;;15.10;99.90;;;;;;6104129;23;20093;-94
2023/03/20 07:11:38;;;;;;;22.08;20.00;;;14.90;99.90;;;;;;6104185;23;20064;-94
2023/03/20 07:14:10;;;;;;;20.88;19.15;;;14.90;99.90;;;;;;6103392;23;20013;-94
2023/03/20 07:17:37;;;;;;;21.83;19.80;;;14.90;99.90;;;;;;6134496;23;20080;-94
2023/03/20 07:20:38;;;;;;;21.00;19.38;;;15.20;99.90;;;;;;6132737;23;20005;-95
2023/03/20 07:23:10;;;;;;;21.38;19.77;;;15.90;99.90;;;;;;6131044;23;20464;-94
2023/03/20 07:25:54;;;;;;;18.92;17.20;;;16.70;99.90;;;;;;6130606;23;20013;-95
2023/03/20 07:28:49;;;;;;;18.55;17.20;;;16.70;99.90;;;;;;6039146;23;20007;-94
2023/03/20 07:31:52;;;;;;;19.75;18.23;;;17.00;99.90;;;;;;6015586;23;20030;-94
2023/03/20 07:37:57;;;;;;;19.52;18.10;;;18.00;99.90;;;;;;6010183;23;20016;-94
2023/03/20 07:40:54;;;;;;;19.42;18.08;;;17.80;99.90;;;;;;6010003;23;20004;-95
2023/03/20 07:43:21;;;;;;;20.27;18.63;;;17.50;99.90;;;;;;5992432;23;20012;-94
2023/03/20 07:49:27;;;;;;;20.98;19.20;;;17.50;99.90;;;;;;6312507;22;20034;-93
2023/03/20 07:51:57;;;;;;;20.20;18.50;;;17.40;99.90;;;;;;6220612;23;20008;-94
2023/03/20 07:54:34;;;;;;;20.75;19.25;;;17.40;99.90;;;;;;6225662;22;20015;-93
2023/03/20 07:57:26;;;;;;;19.48;18.23;;;17.40;99.90;;;;;;6239420;22;20033;-92
2023/03/20 08:00:14;;;;;;;19.20;17.85;;;17.70;99.90;;;;;;6263570;22;20007;-89
2023/03/20 08:02:40;;;;;;;19.65;18.17;;;17.70;99.90;;;;;;6307302;22;19999;-89
2023/03/20 09:12:32;;;;;;;;;;;;;;;;;;;;;
2023/03/20 09:46:55;;;;;;;19.70;18.48;;;19.00;99.90;;;;;;6208661;22;20020;-90
2023/03/20 09:49:53;;;;;;;19.48;18.30;;;19.00;99.90;;;;;;6317802;22;20003;-87
2023/03/20 09:52:34;;;;;;;19.90;18.38;;;19.10;99.90;;;;;;6261099;22;20012;-89
2023/03/20 09:55:17;;;;;;;19.63;18.25;;;19.10;99.90;;;;;;6259903;22;20015;-90
2023/03/20 09:57:51;;;;;;;19.73;18.30;;;19.30;99.90;;;;;;6285455;22;19999;-90
2023/03/20 10:00:23;;;;;;;20.05;18.85;;;19.10;99.90;;;;;;6263538;22;20053;-86
2023/03/20 10:02:59;;;;;;;20.35;18.67;;;19.30;99.90;;;;;;6260098;22;20034;-87
2023/03/20 10:05:29;;;;;;;19.27;17.80;;;19.20;99.90;;;;;;6260410;22;20003;-88
2023/03/20 10:08:00;;;;;;;60.50;21.77;;;19.10;99.90;;;;;;6259708;22;20007;-84
2023/03/20 10:10:51;;;;;;;50.75;21.92;;;19.10;99.90;;;;;;6259952;22;20014;-87
2023/03/20 10:13:24;;;;;;;21.20;18.92;;;19.30;99.90;;;;;;6260268;22;20007;-84
2023/03/20 10:18:36;;;;;;;31.00;19.75;;;19.60;99.90;;;;;;6315804;22;20041;-91
2023/03/20 11:07:36;;;;;;;19.00;17.80;;;18.90;99.90;;;;;;6153416;22;20015;-94
2023/03/20 11:10:15;;;;;;;19.42;17.95;;;18.60;99.90;;;;;;6257576;22;20041;-92
2023/03/20 11:12:48;;;;;;;20.02;17.92;;;18.90;99.90;;;;;;6257749;22;20510;-91
2023/03/20 11:15:24;;;;;;;18.75;17.65;;;18.90;99.90;;;;;;6257076;22;20498;-92
2023/03/20 12:10:09;;;;;;;19.52;18.00;;;19.20;99.90;;;;;;6234932;22;20028;-92
2023/03/20 12:13:20;;;;;;;18.80;17.60;;;19.40;99.90;;;;;;6266410;22;19991;-92
2023/03/20 13:02:00;;;;;;;19.23;17.92;;;18.10;99.90;;;;;;6222548;23;20430;-94
2023/03/20 13:08:51;;;;;;;;;;;;;;;;;;;;;
2023/03/20 13:12:06;;;;;;;18.67;17.50;;;18.10;99.90;;;;;;6310919;22;20448;-94
2023/03/20 13:14:57;;;;;;;18.77;17.38;;;18.30;99.90;;;;;;6258346;22;20033;-93
2023/03/20 13:17:30;;;;;;;18.10;16.80;;;18.30;99.90;;;;;;6258262;22;20448;-94
2023/03/20 13:21:14;;;;;;;;;;;;;;;;;;;;;
2023/03/20 13:24:09;;;;;;;17.77;16.38;;;18.00;99.90;;;;;;6175288;23;20063;-92
2023/03/20 13:26:58;;;;;;;17.30;16.20;;;17.90;99.90;;;;;;6197752;23;20095;-92
2023/03/20 13:29:38;;;;;;;17.88;16.70;;;17.70;99.90;;;;;;6196623;23;20007;-92
2023/03/20 13:32:34;;;;;;;17.15;16.08;;;17.40;99.90;;;;;;6222359;23;20429;-93
2023/03/20 14:11:22;;;;;;;18.42;17.10;;;16.90;99.90;;;;;;6160578;22;20025;-91
2023/03/20 14:14:12;;;;;;;33.38;29.90;;;16.60;99.90;;;;;;6271123;22;20337;-72
2023/03/20 14:16:45;;;;;;;29.98;25.73;;;16.50;99.90;;;;;;6263526;22;20049;-89
2023/03/20 14:19:19;;;;;;;25.55;23.08;;;16.50;99.90;;;;;;6264430;22;20060;-88
2023/03/20 14:21:50;;;;;;;20.35;18.75;;;16.60;99.90;;;;;;6257713;22;20009;-80
2023/03/20 14:24:19;;;;;;;19.40;17.80;;;16.70;99.90;;;;;;6282774;22;20003;-81
2023/03/20 14:26:53;;;;;;;17.98;16.88;;;16.70;99.90;;;;;;6308942;22;20006;-78
2023/03/20 14:29:39;;;;;;;17.83;16.38;;;16.90;99.90;;;;;;6282721;22;20007;-83
2023/03/20 14:32:12;;;;;;;17.67;16.35;;;16.80;99.90;;;;;;6282879;22;20011;-81
2023/03/20 14:34:59;;;;;;;18.35;17.05;;;17.00;99.90;;;;;;6255963;22;20034;-83
2023/03/20 14:37:27;;;;;;;18.35;17.25;;;17.00;99.90;;;;;;6256858;22;20006;-81
2023/03/20 14:40:10;;;;;;;18.95;17.48;;;17.00;99.90;;;;;;6257465;22;20011;-82
2023/03/20 14:42:42;;;;;;;18.58;17.23;;;16.80;99.90;;;;;;6257863;22;20015;-81
2023/03/20 14:45:17;;;;;;;19.50;18.13;;;16.80;99.90;;;;;;6283071;22;20035;-81
2023/03/20 14:48:07;;;;;;;18.05;17.00;;;16.60;99.90;;;;;;6257982;22;20007;-81
2023/03/20 14:50:47;;;;;;;19.10;17.80;;;16.60;99.90;;;;;;6258180;22;20025;-84
2023/03/20 14:53:26;;;;;;;19.17;17.77;;;16.70;99.90;;;;;;6257178;22;20011;-82
2023/03/20 14:55:56;;;;;;;18.17;16.92;;;16.70;99.90;;;;;;6280885;22;20046;-82
2023/03/20 14:58:56;;;;;;;18.60;17.38;;;16.40;99.90;;;;;;6308817;22;19999;-85
2023/03/20 15:01:27;;;;;;;19.73;18.15;;;16.30;99.90;;;;;;6134810;23;20032;-83
2023/03/20 15:04:01;;;;;;;21.92;19.67;;;16.30;99.90;;;;;;6159040;23;20012;-83
2023/03/20 15:06:28;;;;;;;;;;;16.30;99.90;;;;;;6159701;23;20005;-83
2023/03/20 15:09:09;;;;;;;20.02;18.73;;;16.20;99.90;;;;;;6158564;23;19908;-92
